sensor_id;sensor_type;location;lat;lon;timestamp;temperature;humidity
22765;DHT22;11549;50.852;3.816;2023-12-22T00:01:37;9.60;99.90
22765;DHT22;11549;50.852;3.816;2023-12-22T00:04:08;9.50;99.90
22765;DHT22;11549;50.852;3.816;2023-12-22T00:06:36;9.40;99.90
22765;DHT22;11549;50.852;3.816;2023-12-22T00:09:05;9.50;99.90
22765;DHT22;11549;50.852;3.816;2023-12-22T00:11:33;9.40;99.90
22765;DHT22;11549;50.852;3.816;2023-12-22T00:14:01;9.40;99.90
22765;DHT22;11549;50.852;3.816;2023-12-22T00:16:30;9.50;99.90
22765;DHT22;11549;50.852;3.816;2023-12-22T00:18:58;9.50;99.90
22765;DHT22;11549;50.852;3.816;2023-12-22T00:21:28;9.50;99.90
22765;DHT22;11549;50.852;3.816;2023-12-22T00:23:57;9.60;99.90
22765;DHT22;11549;50.852;3.816;2023-12-22T00:26:25;9.60;99.90
22765;DHT22;11549;50.852;3.816;2023-12-22T00:28:54;9.60;99.90
22765;DHT22;11549;50.852;3.816;2023-12-22T00:31:22;9.60;99.90
22765;DHT22;11549;50.852;3.816;2023-12-22T00:33:50;9.50;99.90
22765;DHT22;11549;50.852;3.816;2023-12-22T00:36:19;9.40;99.90
22765;DHT22;11549;50.852;3.816;2023-12-22T00:38:52;9.50;99.90
22765;DHT22;11549;50.852;3.816;2023-12-22T00:41:21;9.60;99.90
22765;DHT22;11549;50.852;3.816;2023-12-22T00:43:50;9.50;99.90
22765;DHT22;11549;50.852;3.816;2023-12-22T00:46:18;9.60;99.90
22765;DHT22;11549;50.852;3.816;2023-12-22T00:48:47;9.60;99.90
22765;DHT22;11549;50.852;3.816;2023-12-22T00:51:15;9.70;99.90
22765;DHT22;11549;50.852;3.816;2023-12-22T00:53:44;9.80;99.90
22765;DHT22;11549;50.852;3.816;2023-12-22T00:56:14;9.80;99.90
22765;DHT22;11549;50.852;3.816;2023-12-22T00:58:42;9.80;99.90
22765;DHT22;11549;50.852;3.816;2023-12-22T01:01:21;9.80;99.90
22765;DHT22;11549;50.852;3.816;2023-12-22T01:03:50;9.80;99.90
22765;DHT22;11549;50.852;3.816;2023-12-22T01:06:18;9.80;99.90
22765;DHT22;11549;50.852;3.816;2023-12-22T01:08:50;9.90;99.90
22765;DHT22;11549;50.852;3.816;2023-12-22T01:11:20;9.90;99.90
22765;DHT22;11549;50.852;3.816;2023-12-22T01:13:48;9.90;99.90
22765;DHT22;11549;50.852;3.816;2023-12-22T01:16:17;9.90;99.90
22765;DHT22;11549;50.852;3.816;2023-12-22T01:18:48;9.90;99.90
22765;DHT22;11549;50.852;3.816;2023-12-22T01:21:17;9.80;99.90
22765;DHT22;11549;50.852;3.816;2023-12-22T01:23:46;9.80;99.90
22765;DHT22;11549;50.852;3.816;2023-12-22T01:26:14;9.80;99.90
22765;DHT22;11549;50.852;3.816;2023-12-22T01:28:44;9.80;99.90
22765;DHT22;11549;50.852;3.816;2023-12-22T01:31:12;9.80;99.90
22765;DHT22;11549;50.852;3.816;2023-12-22T01:33:41;9.80;99.90
22765;DHT22;11549;50.852;3.816;2023-12-22T01:36:09;9.80;99.90
22765;DHT22;11549;50.852;3.816;2023-12-22T01:38:38;9.70;99.90
22765;DHT22;11549;50.852;3.816;2023-12-22T01:41:06;9.70;99.90
22765;DHT22;11549;50.852;3.816;2023-12-22T01:43:35;9.70;99.90
22765;DHT22;11549;50.852;3.816;2023-12-22T01:46:06;9.70;99.90
22765;DHT22;11549;50.852;3.816;2023-12-22T01:48:36;9.70;99.90
22765;DHT22;11549;50.852;3.816;2023-12-22T01:51:06;9.70;99.90
22765;DHT22;11549;50.852;3.816;2023-12-22T01:53:35;9.70;99.90
22765;DHT22;11549;50.852;3.816;2023-12-22T01:56:06;9.80;99.90
22765;DHT22;11549;50.852;3.816;2023-12-22T01:58:36;9.80;99.90
22765;DHT22;11549;50.852;3.816;2023-12-22T02:01:07;9.80;99.90
22765;DHT22;11549;50.852;3.816;2023-12-22T02:03:35;9.80;99.90
22765;DHT22;11549;50.852;3.816;2023-12-22T02:06:05;9.80;99.90
22765;DHT22;11549;50.852;3.816;2023-12-22T02:08:34;9.60;99.90
22765;DHT22;11549;50.852;3.816;2023-12-22T02:11:03;9.30;99.90
22765;DHT22;11549;50.852;3.816;2023-12-22T02:13:32;9.30;99.90
22765;DHT22;11549;50.852;3.816;2023-12-22T02:16:04;9.10;99.90
22765;DHT22;11549;50.852;3.816;2023-12-22T02:18:36;8.90;99.90
22765;DHT22;11549;50.852;3.816;2023-12-22T02:21:07;9.00;99.90
22765;DHT22;11549;50.852;3.816;2023-12-22T02:23:37;8.90;99.90
22765;DHT22;11549;50.852;3.816;2023-12-22T02:26:10;9.00;99.90
22765;DHT22;11549;50.852;3.816;2023-12-22T02:28:42;8.90;99.90
22765;DHT22;11549;50.852;3.816;2023-12-22T02:31:17;9.00;99.90
22765;DHT22;11549;50.852;3.816;2023-12-22T02:33:47;9.00;99.90
22765;DHT22;11549;50.852;3.816;2023-12-22T02:36:17;9.00;99.90
22765;DHT22;11549;50.852;3.816;2023-12-22T02:38:48;9.00;99.90
22765;DHT22;11549;50.852;3.816;2023-12-22T02:41:17;9.00;99.90
22765;DHT22;11549;50.852;3.816;2023-12-22T02:43:46;8.90;99.90
22765;DHT22;11549;50.852;3.816;2023-12-22T02:46:15;9.00;99.90
22765;DHT22;11549;50.852;3.816;2023-12-22T02:48:44;9.10;99.90
22765;DHT22;11549;50.852;3.816;2023-12-22T02:51:12;9.10;99.90
22765;DHT22;11549;50.852;3.816;2023-12-22T02:53:41;9.10;99.90
22765;DHT22;11549;50.852;3.816;2023-12-22T02:56:11;9.10;99.90
22765;DHT22;11549;50.852;3.816;2023-12-22T02:58:39;9.20;99.90
22765;DHT22;11549;50.852;3.816;2023-12-22T03:01:07;9.10;99.90
22765;DHT22;11549;50.852;3.816;2023-12-22T03:03:36;9.10;99.90
22765;DHT22;11549;50.852;3.816;2023-12-22T03:06:05;9.10;99.90
22765;DHT22;11549;50.852;3.816;2023-12-22T03:08:33;9.20;99.90
22765;DHT22;11549;50.852;3.816;2023-12-22T03:11:02;9.20;99.90
22765;DHT22;11549;50.852;3.816;2023-12-22T03:13:31;9.20;99.90
22765;DHT22;11549;50.852;3.816;2023-12-22T03:16:00;9.10;99.90
22765;DHT22;11549;50.852;3.816;2023-12-22T03:18:28;9.20;99.90
22765;DHT22;11549;50.852;3.816;2023-12-22T03:20:57;9.30;99.90
22765;DHT22;11549;50.852;3.816;2023-12-22T03:23:25;9.20;99.90
22765;DHT22;11549;50.852;3.816;2023-12-22T03:25:53;9.20;99.90
22765;DHT22;11549;50.852;3.816;2023-12-22T03:28:22;9.20;99.90
22765;DHT22;11549;50.852;3.816;2023-12-22T03:30:52;9.20;99.90
22765;DHT22;11549;50.852;3.816;2023-12-22T03:33:20;9.30;99.90
22765;DHT22;11549;50.852;3.816;2023-12-22T03:35:49;9.20;99.90
22765;DHT22;11549;50.852;3.816;2023-12-22T03:38:17;9.10;99.90
22765;DHT22;11549;50.852;3.816;2023-12-22T03:40:46;9.20;99.90
22765;DHT22;11549;50.852;3.816;2023-12-22T03:43:14;9.20;99.90
22765;DHT22;11549;50.852;3.816;2023-12-22T03:45:43;9.10;99.90
22765;DHT22;11549;50.852;3.816;2023-12-22T03:48:13;9.20;99.90
22765;DHT22;11549;50.852;3.816;2023-12-22T03:50:42;9.30;99.90
22765;DHT22;11549;50.852;3.816;2023-12-22T03:53:10;9.30;99.90
22765;DHT22;11549;50.852;3.816;2023-12-22T03:55:39;9.30;99.90
22765;DHT22;11549;50.852;3.816;2023-12-22T03:58:07;9.30;99.90
22765;DHT22;11549;50.852;3.816;2023-12-22T04:00:37;9.50;99.90
22765;DHT22;11549;50.852;3.816;2023-12-22T04:03:05;9.40;99.90
22765;DHT22;11549;50.852;3.816;2023-12-22T04:05:35;9.30;99.90
22765;DHT22;11549;50.852;3.816;2023-12-22T04:08:05;9.40;99.90
22765;DHT22;11549;50.852;3.816;2023-12-22T04:10:34;9.30;99.90
22765;DHT22;11549;50.852;3.816;2023-12-22T04:13:02;9.30;99.90
22765;DHT22;11549;50.852;3.816;2023-12-22T04:15:31;9.30;99.90
22765;DHT22;11549;50.852;3.816;2023-12-22T04:17:59;9.30;99.90
22765;DHT22;11549;50.852;3.816;2023-12-22T04:20:28;9.40;99.90
22765;DHT22;11549;50.852;3.816;2023-12-22T04:22:57;9.50;99.90
22765;DHT22;11549;50.852;3.816;2023-12-22T04:25:26;9.50;99.90
22765;DHT22;11549;50.852;3.816;2023-12-22T04:27:54;9.30;99.90
22765;DHT22;11549;50.852;3.816;2023-12-22T04:30:23;9.40;99.90
22765;DHT22;11549;50.852;3.816;2023-12-22T04:32:55;9.40;99.90
22765;DHT22;11549;50.852;3.816;2023-12-22T04:35:24;9.50;99.90
22765;DHT22;11549;50.852;3.816;2023-12-22T04:37:52;9.50;99.90
22765;DHT22;11549;50.852;3.816;2023-12-22T04:40:22;9.50;99.90
22765;DHT22;11549;50.852;3.816;2023-12-22T04:42:51;9.50;99.90
22765;DHT22;11549;50.852;3.816;2023-12-22T04:45:19;9.50;99.90
22765;DHT22;11549;50.852;3.816;2023-12-22T04:47:48;9.60;99.90
22765;DHT22;11549;50.852;3.816;2023-12-22T04:50:16;9.50;99.90
22765;DHT22;11549;50.852;3.816;2023-12-22T04:52:45;9.60;99.90
22765;DHT22;11549;50.852;3.816;2023-12-22T04:55:13;9.60;99.90
22765;DHT22;11549;50.852;3.816;2023-12-22T04:57:43;9.70;99.90
22765;DHT22;11549;50.852;3.816;2023-12-22T05:00:13;9.80;99.90
22765;DHT22;11549;50.852;3.816;2023-12-22T05:02:41;9.70;99.90
22765;DHT22;11549;50.852;3.816;2023-12-22T05:05:10;9.70;99.90
22765;DHT22;11549;50.852;3.816;2023-12-22T05:07:38;9.70;99.90
22765;DHT22;11549;50.852;3.816;2023-12-22T05:10:08;9.70;99.90
22765;DHT22;11549;50.852;3.816;2023-12-22T05:12:36;9.80;99.90
22765;DHT22;11549;50.852;3.816;2023-12-22T05:15:07;9.80;99.90
22765;DHT22;11549;50.852;3.816;2023-12-22T05:17:35;9.80;99.90
22765;DHT22;11549;50.852;3.816;2023-12-22T05:20:05;9.80;99.90
22765;DHT22;11549;50.852;3.816;2023-12-22T05:22:34;9.80;99.90
22765;DHT22;11549;50.852;3.816;2023-12-22T05:25:03;9.70;99.90
22765;DHT22;11549;50.852;3.816;2023-12-22T05:27:32;9.70;99.90
22765;DHT22;11549;50.852;3.816;2023-12-22T05:30:01;9.80;99.90
22765;DHT22;11549;50.852;3.816;2023-12-22T05:32:32;9.80;99.90
22765;DHT22;11549;50.852;3.816;2023-12-22T05:35:00;9.80;99.90
22765;DHT22;11549;50.852;3.816;2023-12-22T05:37:29;9.80;99.90
22765;DHT22;11549;50.852;3.816;2023-12-22T05:39:58;9.70;99.90
22765;DHT22;11549;50.852;3.816;2023-12-22T05:42:26;9.70;99.90
22765;DHT22;11549;50.852;3.816;2023-12-22T05:44:54;9.80;99.90
22765;DHT22;11549;50.852;3.816;2023-12-22T05:47:23;9.80;99.90
22765;DHT22;11549;50.852;3.816;2023-12-22T05:49:53;9.80;99.90
22765;DHT22;11549;50.852;3.816;2023-12-22T05:52:21;9.80;99.90
22765;DHT22;11549;50.852;3.816;2023-12-22T05:54:50;9.90;99.90
22765;DHT22;11549;50.852;3.816;2023-12-22T05:57:19;9.80;99.90
22765;DHT22;11549;50.852;3.816;2023-12-22T05:59:47;9.80;99.90
22765;DHT22;11549;50.852;3.816;2023-12-22T06:02:16;9.80;99.90
22765;DHT22;11549;50.852;3.816;2023-12-22T06:04:44;9.80;99.90
22765;DHT22;11549;50.852;3.816;2023-12-22T06:07:14;9.80;99.90
22765;DHT22;11549;50.852;3.816;2023-12-22T06:09:43;9.80;99.90
22765;DHT22;11549;50.852;3.816;2023-12-22T06:12:11;9.80;99.90
22765;DHT22;11549;50.852;3.816;2023-12-22T06:14:40;9.80;99.90
22765;DHT22;11549;50.852;3.816;2023-12-22T06:17:08;9.80;99.90
22765;DHT22;11549;50.852;3.816;2023-12-22T06:19:37;9.90;99.90
22765;DHT22;11549;50.852;3.816;2023-12-22T06:22:05;10.00;99.90
22765;DHT22;11549;50.852;3.816;2023-12-22T06:24:36;10.00;99.90
22765;DHT22;11549;50.852;3.816;2023-12-22T06:27:04;9.90;99.90
22765;DHT22;11549;50.852;3.816;2023-12-22T06:29:33;9.90;99.90
22765;DHT22;11549;50.852;3.816;2023-12-22T06:32:02;9.90;99.90
22765;DHT22;11549;50.852;3.816;2023-12-22T06:34:33;9.90;99.90
22765;DHT22;11549;50.852;3.816;2023-12-22T06:37:02;9.90;99.90
22765;DHT22;11549;50.852;3.816;2023-12-22T06:39:30;9.90;99.90
22765;DHT22;11549;50.852;3.816;2023-12-22T06:42:00;10.00;99.90
22765;DHT22;11549;50.852;3.816;2023-12-22T06:44:28;10.00;99.90
22765;DHT22;11549;50.852;3.816;2023-12-22T06:46:58;10.00;99.90
22765;DHT22;11549;50.852;3.816;2023-12-22T06:49:26;10.00;99.90
22765;DHT22;11549;50.852;3.816;2023-12-22T06:51:55;10.00;99.90
22765;DHT22;11549;50.852;3.816;2023-12-22T06:54:23;10.10;99.90
22765;DHT22;11549;50.852;3.816;2023-12-22T06:56:52;10.00;99.90
22765;DHT22;11549;50.852;3.816;2023-12-22T06:59:21;10.10;99.90
22765;DHT22;11549;50.852;3.816;2023-12-22T07:01:52;10.10;99.90
22765;DHT22;11549;50.852;3.816;2023-12-22T07:05:01;10.20;99.90
22765;DHT22;11549;50.852;3.816;2023-12-22T07:07:34;10.20;99.90
22765;DHT22;11549;50.852;3.816;2023-12-22T07:10:03;10.30;99.90
22765;DHT22;11549;50.852;3.816;2023-12-22T07:12:32;10.20;99.90
22765;DHT22;11549;50.852;3.816;2023-12-22T07:15:02;10.20;99.90
22765;DHT22;11549;50.852;3.816;2023-12-22T07:17:31;10.20;99.90
22765;DHT22;11549;50.852;3.816;2023-12-22T07:19:59;10.20;99.90
22765;DHT22;11549;50.852;3.816;2023-12-22T07:22:30;10.20;99.90
22765;DHT22;11549;50.852;3.816;2023-12-22T07:24:59;10.30;99.90
22765;DHT22;11549;50.852;3.816;2023-12-22T07:27:27;10.30;99.90
22765;DHT22;11549;50.852;3.816;2023-12-22T07:29:56;10.30;99.90
22765;DHT22;11549;50.852;3.816;2023-12-22T07:32:25;10.20;99.90
22765;DHT22;11549;50.852;3.816;2023-12-22T07:34:55;10.20;99.90
22765;DHT22;11549;50.852;3.816;2023-12-22T07:37:24;10.20;99.90
22765;DHT22;11549;50.852;3.816;2023-12-22T07:39:52;10.20;99.90
22765;DHT22;11549;50.852;3.816;2023-12-22T07:42:20;10.20;99.90
22765;DHT22;11549;50.852;3.816;2023-12-22T07:44:49;10.20;99.90
22765;DHT22;11549;50.852;3.816;2023-12-22T07:47:18;10.30;99.90
22765;DHT22;11549;50.852;3.816;2023-12-22T07:49:47;10.30;99.90
22765;DHT22;11549;50.852;3.816;2023-12-22T07:52:17;10.20;99.90
22765;DHT22;11549;50.852;3.816;2023-12-22T07:54:46;10.20;99.90
22765;DHT22;11549;50.852;3.816;2023-12-22T07:57:15;10.20;99.90
22765;DHT22;11549;50.852;3.816;2023-12-22T07:59:44;10.10;99.90
22765;DHT22;11549;50.852;3.816;2023-12-22T08:02:12;10.20;99.90
22765;DHT22;11549;50.852;3.816;2023-12-22T08:04:40;10.20;99.90
22765;DHT22;11549;50.852;3.816;2023-12-22T08:07:11;10.30;99.90
22765;DHT22;11549;50.852;3.816;2023-12-22T08:09:39;10.30;99.90
22765;DHT22;11549;50.852;3.816;2023-12-22T08:12:08;10.30;99.90
22765;DHT22;11549;50.852;3.816;2023-12-22T08:14:37;10.30;99.90
22765;DHT22;11549;50.852;3.816;2023-12-22T08:17:05;10.30;99.90
22765;DHT22;11549;50.852;3.816;2023-12-22T08:19:34;10.30;99.90
22765;DHT22;11549;50.852;3.816;2023-12-22T08:22:05;10.30;99.90
22765;DHT22;11549;50.852;3.816;2023-12-22T08:24:36;10.40;99.90
22765;DHT22;11549;50.852;3.816;2023-12-22T08:27:04;10.40;99.90
22765;DHT22;11549;50.852;3.816;2023-12-22T08:29:33;10.40;99.90
22765;DHT22;11549;50.852;3.816;2023-12-22T08:32:02;10.50;99.90
22765;DHT22;11549;50.852;3.816;2023-12-22T08:34:31;10.50;99.90
22765;DHT22;11549;50.852;3.816;2023-12-22T08:36:59;10.50;99.90
22765;DHT22;11549;50.852;3.816;2023-12-22T08:39:28;10.50;99.90
22765;DHT22;11549;50.852;3.816;2023-12-22T08:41:58;10.50;99.90
22765;DHT22;11549;50.852;3.816;2023-12-22T08:44:27;10.60;99.90
22765;DHT22;11549;50.852;3.816;2023-12-22T08:46:55;10.60;99.90
22765;DHT22;11549;50.852;3.816;2023-12-22T08:49:24;10.70;99.90
22765;DHT22;11549;50.852;3.816;2023-12-22T08:51:52;10.80;99.90
22765;DHT22;11549;50.852;3.816;2023-12-22T08:54:20;10.80;99.90
22765;DHT22;11549;50.852;3.816;2023-12-22T08:56:49;10.80;99.90
22765;DHT22;11549;50.852;3.816;2023-12-22T08:59:18;10.70;99.90
22765;DHT22;11549;50.852;3.816;2023-12-22T09:01:47;10.80;99.90
22765;DHT22;11549;50.852;3.816;2023-12-22T09:04:15;10.90;99.90
22765;DHT22;11549;50.852;3.816;2023-12-22T09:06:44;10.90;99.90
22765;DHT22;11549;50.852;3.816;2023-12-22T09:09:12;10.90;99.90
22765;DHT22;11549;50.852;3.816;2023-12-22T09:11:40;10.90;99.90
22765;DHT22;11549;50.852;3.816;2023-12-22T09:14:09;10.90;99.90
22765;DHT22;11549;50.852;3.816;2023-12-22T09:16:38;10.90;99.90
22765;DHT22;11549;50.852;3.816;2023-12-22T09:19:07;11.00;99.90
22765;DHT22;11549;50.852;3.816;2023-12-22T09:21:35;11.00;99.90
22765;DHT22;11549;50.852;3.816;2023-12-22T09:24:04;11.00;99.90
22765;DHT22;11549;50.852;3.816;2023-12-22T09:26:33;10.90;99.90
22765;DHT22;11549;50.852;3.816;2023-12-22T09:29:01;11.00;99.90
22765;DHT22;11549;50.852;3.816;2023-12-22T09:31:30;11.10;99.90
22765;DHT22;11549;50.852;3.816;2023-12-22T09:34:01;11.10;99.90
22765;DHT22;11549;50.852;3.816;2023-12-22T09:36:30;11.10;99.90
22765;DHT22;11549;50.852;3.816;2023-12-22T09:38:58;11.10;99.90
22765;DHT22;11549;50.852;3.816;2023-12-22T09:41:27;11.20;99.90
22765;DHT22;11549;50.852;3.816;2023-12-22T09:43:56;11.10;99.90
22765;DHT22;11549;50.852;3.816;2023-12-22T09:46:26;11.10;99.90
22765;DHT22;11549;50.852;3.816;2023-12-22T09:48:55;11.00;99.90
22765;DHT22;11549;50.852;3.816;2023-12-22T09:51:25;11.10;99.90
22765;DHT22;11549;50.852;3.816;2023-12-22T09:53:56;11.00;99.90
22765;DHT22;11549;50.852;3.816;2023-12-22T09:56:29;11.00;99.90
22765;DHT22;11549;50.852;3.816;2023-12-22T09:58:58;11.00;99.90
22765;DHT22;11549;50.852;3.816;2023-12-22T10:01:27;11.10;99.90
22765;DHT22;11549;50.852;3.816;2023-12-22T10:03:57;11.20;99.90
22765;DHT22;11549;50.852;3.816;2023-12-22T10:06:26;11.20;99.90
22765;DHT22;11549;50.852;3.816;2023-12-22T10:08:56;11.20;99.90
22765;DHT22;11549;50.852;3.816;2023-12-22T10:11:25;11.20;99.90
22765;DHT22;11549;50.852;3.816;2023-12-22T10:13:55;11.20;99.90
22765;DHT22;11549;50.852;3.816;2023-12-22T10:16:24;11.10;99.90
22765;DHT22;11549;50.852;3.816;2023-12-22T10:18:53;11.20;99.90
22765;DHT22;11549;50.852;3.816;2023-12-22T10:21:22;11.30;99.90
22765;DHT22;11549;50.852;3.816;2023-12-22T10:23:52;11.30;99.90
22765;DHT22;11549;50.852;3.816;2023-12-22T10:26:22;11.30;99.90
22765;DHT22;11549;50.852;3.816;2023-12-22T10:28:51;11.20;99.90
22765;DHT22;11549;50.852;3.816;2023-12-22T10:31:19;11.20;99.90
22765;DHT22;11549;50.852;3.816;2023-12-22T10:33:48;11.20;99.90
22765;DHT22;11549;50.852;3.816;2023-12-22T10:36:17;11.20;99.90
22765;DHT22;11549;50.852;3.816;2023-12-22T10:38:45;11.20;99.90
22765;DHT22;11549;50.852;3.816;2023-12-22T10:41:15;11.20;99.90
22765;DHT22;11549;50.852;3.816;2023-12-22T10:43:43;11.10;99.90
22765;DHT22;11549;50.852;3.816;2023-12-22T10:46:13;11.00;99.90
22765;DHT22;11549;50.852;3.816;2023-12-22T10:48:41;11.10;99.90
22765;DHT22;11549;50.852;3.816;2023-12-22T10:51:11;11.10;99.90
22765;DHT22;11549;50.852;3.816;2023-12-22T10:53:41;11.10;99.90
22765;DHT22;11549;50.852;3.816;2023-12-22T10:56:10;11.00;99.90
22765;DHT22;11549;50.852;3.816;2023-12-22T10:58:42;11.10;99.90
22765;DHT22;11549;50.852;3.816;2023-12-22T11:01:14;11.10;99.90
22765;DHT22;11549;50.852;3.816;2023-12-22T11:03:44;11.20;99.90
22765;DHT22;11549;50.852;3.816;2023-12-22T11:06:16;11.20;99.90
22765;DHT22;11549;50.852;3.816;2023-12-22T11:08:47;11.20;99.90
22765;DHT22;11549;50.852;3.816;2023-12-22T11:11:24;11.10;99.90
22765;DHT22;11549;50.852;3.816;2023-12-22T11:13:59;11.20;99.90
22765;DHT22;11549;50.852;3.816;2023-12-22T11:16:29;11.20;99.90
22765;DHT22;11549;50.852;3.816;2023-12-22T11:18:59;11.20;99.90
22765;DHT22;11549;50.852;3.816;2023-12-22T11:21:27;11.20;99.90
22765;DHT22;11549;50.852;3.816;2023-12-22T11:23:57;11.20;99.90
22765;DHT22;11549;50.852;3.816;2023-12-22T11:26:26;11.10;99.90
22765;DHT22;11549;50.852;3.816;2023-12-22T11:28:55;11.10;99.90
22765;DHT22;11549;50.852;3.816;2023-12-22T11:31:28;11.10;99.90
22765;DHT22;11549;50.852;3.816;2023-12-22T11:33:58;11.10;99.90
22765;DHT22;11549;50.852;3.816;2023-12-22T11:36:38;11.10;99.90
22765;DHT22;11549;50.852;3.816;2023-12-22T11:39:07;11.10;99.90
22765;DHT22;11549;50.852;3.816;2023-12-22T11:41:36;11.20;99.90
22765;DHT22;11549;50.852;3.816;2023-12-22T11:44:05;11.20;99.90
22765;DHT22;11549;50.852;3.816;2023-12-22T11:46:35;11.30;99.90
22765;DHT22;11549;50.852;3.816;2023-12-22T11:49:04;11.40;99.90
22765;DHT22;11549;50.852;3.816;2023-12-22T11:51:33;11.30;99.90
22765;DHT22;11549;50.852;3.816;2023-12-22T11:54:03;11.40;99.90
22765;DHT22;11549;50.852;3.816;2023-12-22T11:56:31;11.40;99.90
22765;DHT22;11549;50.852;3.816;2023-12-22T11:58:59;11.40;99.90
22765;DHT22;11549;50.852;3.816;2023-12-22T12:01:29;11.40;99.90
22765;DHT22;11549;50.852;3.816;2023-12-22T12:04:02;11.40;99.90
22765;DHT22;11549;50.852;3.816;2023-12-22T12:06:33;11.40;99.90
22765;DHT22;11549;50.852;3.816;2023-12-22T12:09:05;11.30;99.90
22765;DHT22;11549;50.852;3.816;2023-12-22T12:14:47;11.30;99.90
22765;DHT22;11549;50.852;3.816;2023-12-22T12:17:19;11.30;99.90
22765;DHT22;11549;50.852;3.816;2023-12-22T12:19:49;11.20;99.90
22765;DHT22;11549;50.852;3.816;2023-12-22T12:22:19;11.20;99.90
22765;DHT22;11549;50.852;3.816;2023-12-22T12:24:52;11.20;99.90
22765;DHT22;11549;50.852;3.816;2023-12-22T12:27:21;11.10;99.90
22765;DHT22;11549;50.852;3.816;2023-12-22T12:29:50;11.10;99.90
22765;DHT22;11549;50.852;3.816;2023-12-22T12:32:23;11.10;99.90
22765;DHT22;11549;50.852;3.816;2023-12-22T12:34:53;11.10;99.90
22765;DHT22;11549;50.852;3.816;2023-12-22T12:37:23;11.10;99.90
22765;DHT22;11549;50.852;3.816;2023-12-22T12:39:54;11.20;99.90
22765;DHT22;11549;50.852;3.816;2023-12-22T12:42:29;11.20;99.90
22765;DHT22;11549;50.852;3.816;2023-12-22T12:44:58;11.30;99.90
22765;DHT22;11549;50.852;3.816;2023-12-22T12:47:26;11.30;99.90
22765;DHT22;11549;50.852;3.816;2023-12-22T12:49:59;11.30;99.90
22765;DHT22;11549;50.852;3.816;2023-12-22T12:52:28;11.30;99.90
22765;DHT22;11549;50.852;3.816;2023-12-22T12:54:57;11.30;99.90
22765;DHT22;11549;50.852;3.816;2023-12-22T12:57:27;11.40;99.90
22765;DHT22;11549;50.852;3.816;2023-12-22T12:59:56;11.40;99.90
22765;DHT22;11549;50.852;3.816;2023-12-22T13:02:25;11.40;99.90
22765;DHT22;11549;50.852;3.816;2023-12-22T13:04:54;11.50;99.90
22765;DHT22;11549;50.852;3.816;2023-12-22T13:07:27;11.50;99.90
22765;DHT22;11549;50.852;3.816;2023-12-22T13:09:55;11.50;99.90
22765;DHT22;11549;50.852;3.816;2023-12-22T13:12:24;11.60;99.90
22765;DHT22;11549;50.852;3.816;2023-12-22T13:14:54;11.60;99.90
22765;DHT22;11549;50.852;3.816;2023-12-22T13:17:22;11.60;99.90
22765;DHT22;11549;50.852;3.816;2023-12-22T13:19:51;11.60;99.90
22765;DHT22;11549;50.852;3.816;2023-12-22T13:22:19;11.50;99.90
22765;DHT22;11549;50.852;3.816;2023-12-22T13:24:56;11.50;99.90
22765;DHT22;11549;50.852;3.816;2023-12-22T13:27:26;11.50;99.90
22765;DHT22;11549;50.852;3.816;2023-12-22T13:29:54;11.60;99.90
22765;DHT22;11549;50.852;3.816;2023-12-22T13:32:23;11.50;99.90
22765;DHT22;11549;50.852;3.816;2023-12-22T13:34:52;11.50;99.90
22765;DHT22;11549;50.852;3.816;2023-12-22T13:37:23;11.50;99.90
22765;DHT22;11549;50.852;3.816;2023-12-22T13:39:55;11.60;99.90
22765;DHT22;11549;50.852;3.816;2023-12-22T13:42:24;11.60;99.90
22765;DHT22;11549;50.852;3.816;2023-12-22T13:44:53;11.50;99.90
22765;DHT22;11549;50.852;3.816;2023-12-22T13:47:22;11.40;99.90
22765;DHT22;11549;50.852;3.816;2023-12-22T13:49:53;11.40;99.90
22765;DHT22;11549;50.852;3.816;2023-12-22T13:52:26;11.50;99.90
22765;DHT22;11549;50.852;3.816;2023-12-22T13:54:56;11.50;99.90
22765;DHT22;11549;50.852;3.816;2023-12-22T13:57:28;11.40;99.90
22765;DHT22;11549;50.852;3.816;2023-12-22T13:59:57;11.40;99.90
22765;DHT22;11549;50.852;3.816;2023-12-22T14:02:25;11.50;99.90
22765;DHT22;11549;50.852;3.816;2023-12-22T14:04:54;11.50;99.90
22765;DHT22;11549;50.852;3.816;2023-12-22T14:07:23;11.50;99.90
22765;DHT22;11549;50.852;3.816;2023-12-22T14:09:51;11.60;99.90
22765;DHT22;11549;50.852;3.816;2023-12-22T14:12:21;11.50;99.90
22765;DHT22;11549;50.852;3.816;2023-12-22T14:14:58;11.50;99.90
22765;DHT22;11549;50.852;3.816;2023-12-22T14:17:26;11.50;99.90
22765;DHT22;11549;50.852;3.816;2023-12-22T14:19:57;11.60;99.90
22765;DHT22;11549;50.852;3.816;2023-12-22T14:22:26;11.60;99.90
22765;DHT22;11549;50.852;3.816;2023-12-22T14:24:54;11.70;99.90
22765;DHT22;11549;50.852;3.816;2023-12-22T14:27:24;11.70;99.90
22765;DHT22;11549;50.852;3.816;2023-12-22T14:29:52;11.60;99.90
22765;DHT22;11549;50.852;3.816;2023-12-22T14:32:21;11.60;99.90
22765;DHT22;11549;50.852;3.816;2023-12-22T14:34:50;11.60;99.90
22765;DHT22;11549;50.852;3.816;2023-12-22T14:37:18;11.70;99.90
22765;DHT22;11549;50.852;3.816;2023-12-22T14:39:47;11.70;99.90
22765;DHT22;11549;50.852;3.816;2023-12-22T14:42:15;11.70;99.90
22765;DHT22;11549;50.852;3.816;2023-12-22T14:44:45;11.60;99.90
22765;DHT22;11549;50.852;3.816;2023-12-22T14:47:14;11.60;99.90
22765;DHT22;11549;50.852;3.816;2023-12-22T14:49:42;11.60;99.90
22765;DHT22;11549;50.852;3.816;2023-12-22T14:52:11;11.60;99.90
22765;DHT22;11549;50.852;3.816;2023-12-22T14:54:39;11.60;99.90
22765;DHT22;11549;50.852;3.816;2023-12-22T14:57:07;11.60;99.90
22765;DHT22;11549;50.852;3.816;2023-12-22T14:59:35;11.50;99.90
22765;DHT22;11549;50.852;3.816;2023-12-22T15:02:05;11.50;99.90
22765;DHT22;11549;50.852;3.816;2023-12-22T15:04:34;11.60;99.90
22765;DHT22;11549;50.852;3.816;2023-12-22T15:07:02;11.60;99.90
22765;DHT22;11549;50.852;3.816;2023-12-22T15:09:31;11.60;99.90
22765;DHT22;11549;50.852;3.816;2023-12-22T15:11:59;11.60;99.90
22765;DHT22;11549;50.852;3.816;2023-12-22T15:14:28;11.60;99.90
22765;DHT22;11549;50.852;3.816;2023-12-22T15:16:56;11.70;99.90
22765;DHT22;11549;50.852;3.816;2023-12-22T15:19:26;11.60;99.90
22765;DHT22;11549;50.852;3.816;2023-12-22T15:21:54;11.60;99.90
22765;DHT22;11549;50.852;3.816;2023-12-22T15:24:22;11.60;99.90
22765;DHT22;11549;50.852;3.816;2023-12-22T15:26:53;11.70;99.90
22765;DHT22;11549;50.852;3.816;2023-12-22T15:29:21;11.70;99.90
22765;DHT22;11549;50.852;3.816;2023-12-22T15:31:50;11.60;99.90
22765;DHT22;11549;50.852;3.816;2023-12-22T15:34:23;11.50;99.90
22765;DHT22;11549;50.852;3.816;2023-12-22T15:36:54;11.60;99.90
22765;DHT22;11549;50.852;3.816;2023-12-22T15:39:22;11.60;99.90
22765;DHT22;11549;50.852;3.816;2023-12-22T15:41:50;11.60;99.90
22765;DHT22;11549;50.852;3.816;2023-12-22T15:44:19;11.60;99.90
22765;DHT22;11549;50.852;3.816;2023-12-22T15:46:47;11.60;99.90
22765;DHT22;11549;50.852;3.816;2023-12-22T15:49:16;11.60;99.90
22765;DHT22;11549;50.852;3.816;2023-12-22T15:51:45;11.60;99.90
22765;DHT22;11549;50.852;3.816;2023-12-22T15:54:14;11.50;99.90